sensor_id;sensor_type;location;lat;lon;timestamp;P1;durP1;ratioP1;P2;durP2;ratioP2
2564;SDS011;1292;48.020;7.822;2023-08-06T05:48:15;2.67;;;1.20;;
2564;SDS011;1292;48.020;7.822;2023-08-06T05:50:42;4.20;;;1.80;;
2564;SDS011;1292;48.020;7.822;2023-08-06T05:53:09;4.43;;;1.63;;
2564;SDS011;1292;48.020;7.822;2023-08-06T05:55:36;4.00;;;1.50;;
2564;SDS011;1292;48.020;7.822;2023-08-06T05:58:03;2.50;;;1.27;;
2564;SDS011;1292;48.020;7.822;2023-08-06T06:00:29;6.10;;;1.50;;
2564;SDS011;1292;48.020;7.822;2023-08-06T06:02:56;2.50;;;0.97;;
2564;SDS011;1292;48.020;7.822;2023-08-06T06:05:24;5.40;;;1.33;;
2564;SDS011;1292;48.020;7.822;2023-08-06T06:07:51;3.40;;;1.50;;
2564;SDS011;1292;48.020;7.822;2023-08-06T06:10:18;1.27;;;0.97;;
2564;SDS011;1292;48.020;7.822;2023-08-06T06:12:45;4.33;;;1.33;;
2564;SDS011;1292;48.020;7.822;2023-08-06T06:15:12;4.53;;;2.40;;
2564;SDS011;1292;48.020;7.822;2023-08-06T06:17:38;1.83;;;1.10;;
2564;SDS011;1292;48.020;7.822;2023-08-06T06:20:06;5.73;;;1.30;;
2564;SDS011;1292;48.020;7.822;2023-08-06T06:22:35;2.60;;;0.83;;
2564;SDS011;1292;48.020;7.822;2023-08-06T06:25:01;2.67;;;1.00;;
2564;SDS011;1292;48.020;7.822;2023-08-06T06:27:28;3.70;;;1.40;;
2564;SDS011;1292;48.020;7.822;2023-08-06T06:29:55;5.60;;;1.40;;
2564;SDS011;1292;48.020;7.822;2023-08-06T06:32:22;4.57;;;1.50;;
2564;SDS011;1292;48.020;7.822;2023-08-06T06:34:49;3.77;;;1.40;;
2564;SDS011;1292;48.020;7.822;2023-08-06T06:37:16;4.73;;;1.33;;
2564;SDS011;1292;48.020;7.822;2023-08-06T06:39:44;4.27;;;1.13;;
2564;SDS011;1292;48.020;7.822;2023-08-06T06:42:11;3.07;;;1.13;;
2564;SDS011;1292;48.020;7.822;2023-08-06T06:44:37;4.60;;;1.37;;
2564;SDS011;1292;48.020;7.822;2023-08-06T06:47:04;2.20;;;0.93;;
2564;SDS011;1292;48.020;7.822;2023-08-06T06:49:31;2.63;;;1.40;;
2564;SDS011;1292;48.020;7.822;2023-08-06T06:51:58;4.60;;;1.10;;
2564;SDS011;1292;48.020;7.822;2023-08-06T06:54:25;2.97;;;1.00;;
2564;SDS011;1292;48.020;7.822;2023-08-06T06:56:53;4.50;;;0.90;;
2564;SDS011;1292;48.020;7.822;2023-08-06T06:59:20;1.13;;;1.03;;
2564;SDS011;1292;48.020;7.822;2023-08-06T07:01:47;1.50;;;0.93;;
2564;SDS011;1292;48.020;7.822;2023-08-06T07:04:13;1.30;;;0.97;;
2564;SDS011;1292;48.020;7.822;2023-08-06T07:06:40;2.50;;;1.10;;
2564;SDS011;1292;48.020;7.822;2023-08-06T07:09:07;3.90;;;0.93;;
2564;SDS011;1292;48.020;7.822;2023-08-06T07:11:34;2.00;;;1.00;;
2564;SDS011;1292;48.020;7.822;2023-08-06T07:14:02;1.47;;;0.80;;
2564;SDS011;1292;48.020;7.822;2023-08-06T07:16:29;2.20;;;1.20;;
2564;SDS011;1292;48.020;7.822;2023-08-06T07:18:56;0.90;;;0.60;;
2564;SDS011;1292;48.020;7.822;2023-08-06T07:21:22;0.77;;;0.77;;
2564;SDS011;1292;48.020;7.822;2023-08-06T07:23:49;10.20;;;1.00;;
2564;SDS011;1292;48.020;7.822;2023-08-06T07:26:16;1.27;;;0.70;;
2564;SDS011;1292;48.020;7.822;2023-08-06T07:28:43;0.60;;;0.60;;
2564;SDS011;1292;48.020;7.822;2023-08-06T07:31:11;0.70;;;0.67;;
2564;SDS011;1292;48.020;7.822;2023-08-06T07:33:38;0.97;;;0.70;;
2564;SDS011;1292;48.020;7.822;2023-08-06T07:36:08;4.77;;;0.80;;
2564;SDS011;1292;48.020;7.822;2023-08-06T07:38:36;1.07;;;0.80;;
2564;SDS011;1292;48.020;7.822;2023-08-06T07:41:03;0.80;;;0.80;;
2564;SDS011;1292;48.020;7.822;2023-08-06T07:43:30;3.93;;;0.70;;
2564;SDS011;1292;48.020;7.822;2023-08-06T07:45:57;3.03;;;0.80;;
2564;SDS011;1292;48.020;7.822;2023-08-06T07:48:26;0.90;;;0.53;;
2564;SDS011;1292;48.020;7.822;2023-08-06T07:50:53;1.00;;;0.60;;
2564;SDS011;1292;48.020;7.822;2023-08-06T07:53:20;2.80;;;0.70;;
2564;SDS011;1292;48.020;7.822;2023-08-06T07:55:49;0.60;;;0.60;;
2564;SDS011;1292;48.020;7.822;2023-08-06T07:58:17;0.77;;;0.40;;
2564;SDS011;1292;48.020;7.822;2023-08-06T08:00:44;0.97;;;0.60;;
2564;SDS011;1292;48.020;7.822;2023-08-06T08:03:11;0.53;;;0.50;;
2564;SDS011;1292;48.020;7.822;2023-08-06T08:05:40;0.70;;;0.60;;
2564;SDS011;1292;48.020;7.822;2023-08-06T08:08:07;0.70;;;0.70;;
2564;SDS011;1292;48.020;7.822;2023-08-06T08:10:34;0.60;;;0.50;;
2564;SDS011;1292;48.020;7.822;2023-08-06T08:13:03;0.87;;;0.50;;
2564;SDS011;1292;48.020;7.822;2023-08-06T08:15:30;1.00;;;0.70;;
2564;SDS011;1292;48.020;7.822;2023-08-06T08:17:58;0.63;;;0.63;;
2564;SDS011;1292;48.020;7.822;2023-08-06T08:20:25;1.20;;;0.57;;
2564;SDS011;1292;48.020;7.822;2023-08-06T08:22:57;0.50;;;0.50;;
2564;SDS011;1292;48.020;7.822;2023-08-06T08:25:25;1.80;;;0.80;;
2564;SDS011;1292;48.020;7.822;2023-08-06T08:27:52;0.80;;;0.70;;
2564;SDS011;1292;48.020;7.822;2023-08-06T08:30:19;0.70;;;0.60;;
2564;SDS011;1292;48.020;7.822;2023-08-06T08:32:46;1.23;;;0.50;;
2564;SDS011;1292;48.020;7.822;2023-08-06T08:35:14;0.70;;;0.60;;
2564;SDS011;1292;48.020;7.822;2023-08-06T08:37:41;1.60;;;0.67;;
2564;SDS011;1292;48.020;7.822;2023-08-06T08:40:09;1.47;;;0.70;;
2564;SDS011;1292;48.020;7.822;2023-08-06T08:42:36;1.33;;;0.60;;
2564;SDS011;1292;48.020;7.822;2023-08-06T08:45:04;1.70;;;0.57;;
2564;SDS011;1292;48.020;7.822;2023-08-06T08:47:32;0.90;;;0.60;;
2564;SDS011;1292;48.020;7.822;2023-08-06T08:50:00;1.57;;;0.70;;
2564;SDS011;1292;48.020;7.822;2023-08-06T08:52:27;1.33;;;0.70;;
2564;SDS011;1292;48.020;7.822;2023-08-06T08:54:56;2.03;;;1.03;;
2564;SDS011;1292;48.020;7.822;2023-08-06T08:57:25;4.00;;;0.80;;
2564;SDS011;1292;48.020;7.822;2023-08-06T08:59:52;2.50;;;0.70;;
2564;SDS011;1292;48.020;7.822;2023-08-06T09:02:19;0.90;;;0.70;;
2564;SDS011;1292;48.020;7.822;2023-08-06T09:04:49;0.60;;;0.40;;
2564;SDS011;1292;48.020;7.822;2023-08-06T09:07:17;1.03;;;0.70;;
2564;SDS011;1292;48.020;7.822;2023-08-06T09:09:46;0.73;;;0.67;;
2564;SDS011;1292;48.020;7.822;2023-08-06T09:12:15;0.50;;;0.50;;
2564;SDS011;1292;48.020;7.822;2023-08-06T09:14:44;0.50;;;0.50;;
2564;SDS011;1292;48.020;7.822;2023-08-06T09:17:11;0.90;;;0.63;;
2564;SDS011;1292;48.020;7.822;2023-08-06T09:19:39;0.50;;;0.40;;
2564;SDS011;1292;48.020;7.822;2023-08-06T09:22:11;0.60;;;0.50;;
2564;SDS011;1292;48.020;7.822;2023-08-06T09:24:38;0.60;;;0.60;;
2564;SDS011;1292;48.020;7.822;2023-08-06T09:27:08;0.40;;;0.40;;
2564;SDS011;1292;48.020;7.822;2023-08-06T09:29:39;0.60;;;0.40;;
2564;SDS011;1292;48.020;7.822;2023-08-06T09:32:08;0.50;;;0.40;;
2564;SDS011;1292;48.020;7.822;2023-08-06T09:34:35;0.77;;;0.50;;
2564;SDS011;1292;48.020;7.822;2023-08-06T09:37:04;1.37;;;0.50;;
2564;SDS011;1292;48.020;7.822;2023-08-06T09:39:31;0.70;;;0.63;;
2564;SDS011;1292;48.020;7.822;2023-08-06T09:41:58;1.60;;;0.60;;
2564;SDS011;1292;48.020;7.822;2023-08-06T09:44:27;0.83;;;0.63;;
2564;SDS011;1292;48.020;7.822;2023-08-06T09:46:56;0.73;;;0.73;;
2564;SDS011;1292;48.020;7.822;2023-08-06T09:49:26;1.50;;;0.50;;
2564;SDS011;1292;48.020;7.822;2023-08-06T09:51:54;1.23;;;0.73;;
2564;SDS011;1292;48.020;7.822;2023-08-06T09:54:23;0.40;;;0.40;;
2564;SDS011;1292;48.020;7.822;2023-08-06T09:56:52;1.07;;;0.60;;
2564;SDS011;1292;48.020;7.822;2023-08-06T09:59:19;0.63;;;0.60;;
2564;SDS011;1292;48.020;7.822;2023-08-06T10:01:46;1.27;;;0.50;;
2564;SDS011;1292;48.020;7.822;2023-08-06T10:04:13;3.53;;;0.80;;
2564;SDS011;1292;48.020;7.822;2023-08-06T10:06:46;1.80;;;1.70;;
2564;SDS011;1292;48.020;7.822;2023-08-06T10:09:13;3.33;;;0.60;;
2564;SDS011;1292;48.020;7.822;2023-08-06T10:11:40;2.30;;;0.60;;
2564;SDS011;1292;48.020;7.822;2023-08-06T10:14:10;0.50;;;0.40;;
2564;SDS011;1292;48.020;7.822;2023-08-06T10:16:39;1.70;;;0.70;;
2564;SDS011;1292;48.020;7.822;2023-08-06T10:19:09;0.53;;;0.50;;
2564;SDS011;1292;48.020;7.822;2023-08-06T10:21:37;1.90;;;0.90;;
2564;SDS011;1292;48.020;7.822;2023-08-06T10:24:07;0.60;;;0.60;;
2564;SDS011;1292;48.020;7.822;2023-08-06T10:26:35;1.33;;;0.67;;
2564;SDS011;1292;48.020;7.822;2023-08-06T10:29:08;0.60;;;0.60;;
2564;SDS011;1292;48.020;7.822;2023-08-06T10:32:03;0.90;;;0.90;;
2564;SDS011;1292;48.020;7.822;2023-08-06T10:37:20;1.27;;;0.90;;
2564;SDS011;1292;48.020;7.822;2023-08-06T10:39:51;0.57;;;0.50;;
2564;SDS011;1292;48.020;7.822;2023-08-06T10:42:21;0.70;;;0.70;;
2564;SDS011;1292;48.020;7.822;2023-08-06T10:47:38;1.80;;;0.80;;
2564;SDS011;1292;48.020;7.822;2023-08-06T10:50:06;1.73;;;1.30;;
2564;SDS011;1292;48.020;7.822;2023-08-06T10:52:33;1.43;;;0.70;;
2564;SDS011;1292;48.020;7.822;2023-08-06T10:55:01;2.07;;;0.70;;
2564;SDS011;1292;48.020;7.822;2023-08-06T10:57:28;6.03;;;0.80;;
2564;SDS011;1292;48.020;7.822;2023-08-06T10:59:55;1.00;;;0.77;;
2564;SDS011;1292;48.020;7.822;2023-08-06T11:02:22;1.10;;;0.80;;
2564;SDS011;1292;48.020;7.822;2023-08-06T11:04:49;0.67;;;0.53;;
2564;SDS011;1292;48.020;7.822;2023-08-06T11:07:16;0.57;;;0.57;;
2564;SDS011;1292;48.020;7.822;2023-08-06T11:09:43;1.53;;;0.60;;
2564;SDS011;1292;48.020;7.822;2023-08-06T11:12:11;0.93;;;0.63;;
2564;SDS011;1292;48.020;7.822;2023-08-06T11:14:49;1.43;;;0.70;;
2564;SDS011;1292;48.020;7.822;2023-08-06T11:17:16;0.80;;;0.60;;
2564;SDS011;1292;48.020;7.822;2023-08-06T11:19:43;0.87;;;0.60;;
2564;SDS011;1292;48.020;7.822;2023-08-06T11:22:10;0.40;;;0.40;;
2564;SDS011;1292;48.020;7.822;2023-08-06T11:24:37;1.00;;;0.70;;
2564;SDS011;1292;48.020;7.822;2023-08-06T11:27:11;1.03;;;0.67;;
2564;SDS011;1292;48.020;7.822;2023-08-06T11:29:39;0.60;;;0.60;;
2564;SDS011;1292;48.020;7.822;2023-08-06T11:32:07;0.50;;;0.43;;
2564;SDS011;1292;48.020;7.822;2023-08-06T11:34:34;0.70;;;0.60;;
2564;SDS011;1292;48.020;7.822;2023-08-06T11:37:02;0.50;;;0.50;;
2564;SDS011;1292;48.020;7.822;2023-08-06T11:39:30;1.17;;;0.63;;
2564;SDS011;1292;48.020;7.822;2023-08-06T11:41:57;0.80;;;0.80;;
2564;SDS011;1292;48.020;7.822;2023-08-06T11:44:29;1.03;;;0.67;;
2564;SDS011;1292;48.020;7.822;2023-08-06T11:46:57;0.60;;;0.60;;
2564;SDS011;1292;48.020;7.822;2023-08-06T11:49:39;0.97;;;0.60;;
2564;SDS011;1292;48.020;7.822;2023-08-06T11:52:14;0.63;;;0.50;;
2564;SDS011;1292;48.020;7.822;2023-08-06T11:54:44;0.70;;;0.60;;
2564;SDS011;1292;48.020;7.822;2023-08-06T11:57:11;1.57;;;0.63;;
2564;SDS011;1292;48.020;7.822;2023-08-06T11:59:40;0.60;;;0.60;;
2564;SDS011;1292;48.020;7.822;2023-08-06T12:02:08;0.60;;;0.50;;
2564;SDS011;1292;48.020;7.822;2023-08-06T12:04:57;0.50;;;0.50;;
2564;SDS011;1292;48.020;7.822;2023-08-06T12:07:28;0.50;;;0.50;;
2564;SDS011;1292;48.020;7.822;2023-08-06T12:09:56;2.13;;;1.50;;
2564;SDS011;1292;48.020;7.822;2023-08-06T12:12:22;2.77;;;1.47;;
2564;SDS011;1292;48.020;7.822;2023-08-06T12:14:51;0.67;;;0.50;;
2564;SDS011;1292;48.020;7.822;2023-08-06T12:17:18;0.73;;;0.60;;
2564;SDS011;1292;48.020;7.822;2023-08-06T12:19:45;0.70;;;0.50;;
2564;SDS011;1292;48.020;7.822;2023-08-06T12:22:12;0.70;;;0.70;;
2564;SDS011;1292;48.020;7.822;2023-08-06T12:24:40;0.50;;;0.40;;
2564;SDS011;1292;48.020;7.822;2023-08-06T12:27:07;2.10;;;1.40;;
2564;SDS011;1292;48.020;7.822;2023-08-06T12:29:34;5.67;;;3.20;;
2564;SDS011;1292;48.020;7.822;2023-08-06T12:32:03;2.80;;;2.10;;
2564;SDS011;1292;48.020;7.822;2023-08-06T12:34:30;2.97;;;1.50;;
2564;SDS011;1292;48.020;7.822;2023-08-06T12:36:57;0.60;;;0.50;;
2564;SDS011;1292;48.020;7.822;2023-08-06T12:39:24;0.60;;;0.60;;
2564;SDS011;1292;48.020;7.822;2023-08-06T12:41:53;6.13;;;0.73;;
2564;SDS011;1292;48.020;7.822;2023-08-06T12:44:22;1.10;;;0.67;;
2564;SDS011;1292;48.020;7.822;2023-08-06T12:46:49;1.30;;;0.73;;
2564;SDS011;1292;48.020;7.822;2023-08-06T12:49:17;2.80;;;0.70;;
2564;SDS011;1292;48.020;7.822;2023-08-06T12:51:46;0.60;;;0.60;;
2564;SDS011;1292;48.020;7.822;2023-08-06T12:54:13;1.90;;;0.63;;
2564;SDS011;1292;48.020;7.822;2023-08-06T12:56:39;0.50;;;0.50;;
2564;SDS011;1292;48.020;7.822;2023-08-06T12:59:06;0.97;;;0.87;;
2564;SDS011;1292;48.020;7.822;2023-08-06T13:01:33;1.50;;;0.90;;
2564;SDS011;1292;48.020;7.822;2023-08-06T13:04:00;0.60;;;0.60;;
2564;SDS011;1292;48.020;7.822;2023-08-06T13:06:29;0.70;;;0.60;;
2564;SDS011;1292;48.020;7.822;2023-08-06T13:09:00;1.97;;;1.23;;
2564;SDS011;1292;48.020;7.822;2023-08-06T13:11:28;2.90;;;2.33;;
2564;SDS011;1292;48.020;7.822;2023-08-06T13:13:55;3.87;;;1.73;;
2564;SDS011;1292;48.020;7.822;2023-08-06T13:16:22;1.73;;;0.90;;
2564;SDS011;1292;48.020;7.822;2023-08-06T13:18:49;1.37;;;0.97;;
2564;SDS011;1292;48.020;7.822;2023-08-06T13:21:16;0.90;;;0.80;;
2564;SDS011;1292;48.020;7.822;2023-08-06T13:23:44;0.80;;;0.70;;
2564;SDS011;1292;48.020;7.822;2023-08-06T13:26:12;3.40;;;1.00;;
2564;SDS011;1292;48.020;7.822;2023-08-06T13:28:40;1.03;;;0.93;;
2564;SDS011;1292;48.020;7.822;2023-08-06T13:31:07;4.50;;;2.57;;
2564;SDS011;1292;48.020;7.822;2023-08-06T13:33:34;8.50;;;3.73;;
2564;SDS011;1292;48.020;7.822;2023-08-06T13:36:01;3.40;;;2.60;;
2564;SDS011;1292;48.020;7.822;2023-08-06T13:38:28;2.33;;;1.87;;
2564;SDS011;1292;48.020;7.822;2023-08-06T13:40:56;1.40;;;1.30;;
2564;SDS011;1292;48.020;7.822;2023-08-06T13:43:24;2.33;;;1.33;;
2564;SDS011;1292;48.020;7.822;2023-08-06T13:45:51;1.50;;;1.13;;
2564;SDS011;1292;48.020;7.822;2023-08-06T13:48:18;3.33;;;1.90;;
2564;SDS011;1292;48.020;7.822;2023-08-06T13:50:45;3.30;;;1.13;;
2564;SDS011;1292;48.020;7.822;2023-08-06T13:53:12;0.80;;;0.80;;
2564;SDS011;1292;48.020;7.822;2023-08-06T13:55:38;0.80;;;0.77;;
2564;SDS011;1292;48.020;7.822;2023-08-06T13:58:06;3.90;;;0.90;;
2564;SDS011;1292;48.020;7.822;2023-08-06T14:00:33;1.53;;;1.00;;
2564;SDS011;1292;48.020;7.822;2023-08-06T14:03:01;0.97;;;0.83;;
2564;SDS011;1292;48.020;7.822;2023-08-06T14:05:28;1.77;;;1.27;;
2564;SDS011;1292;48.020;7.822;2023-08-06T14:07:55;3.37;;;2.83;;
2564;SDS011;1292;48.020;7.822;2023-08-06T14:10:21;7.20;;;4.60;;
2564;SDS011;1292;48.020;7.822;2023-08-06T14:12:49;2.30;;;1.67;;
2564;SDS011;1292;48.020;7.822;2023-08-06T14:15:17;1.93;;;1.17;;
2564;SDS011;1292;48.020;7.822;2023-08-06T14:17:44;2.60;;;1.10;;
2564;SDS011;1292;48.020;7.822;2023-08-06T14:20:11;0.70;;;0.67;;
2564;SDS011;1292;48.020;7.822;2023-08-06T14:22:38;1.30;;;1.10;;
2564;SDS011;1292;48.020;7.822;2023-08-06T14:25:05;1.20;;;1.10;;
2564;SDS011;1292;48.020;7.822;2023-08-06T14:27:32;1.53;;;0.93;;
2564;SDS011;1292;48.020;7.822;2023-08-06T14:29:59;1.33;;;0.97;;
2564;SDS011;1292;48.020;7.822;2023-08-06T14:32:29;1.07;;;0.87;;
2564;SDS011;1292;48.020;7.822;2023-08-06T14:34:56;0.97;;;0.80;;
2564;SDS011;1292;48.020;7.822;2023-08-06T14:37:23;1.13;;;0.70;;
2564;SDS011;1292;48.020;7.822;2023-08-06T14:39:51;1.10;;;1.00;;
2564;SDS011;1292;48.020;7.822;2023-08-06T14:42:17;2.33;;;1.90;;
2564;SDS011;1292;48.020;7.822;2023-08-06T14:44:44;2.87;;;2.07;;
2564;SDS011;1292;48.020;7.822;2023-08-06T14:47:11;2.30;;;1.90;;
2564;SDS011;1292;48.020;7.822;2023-08-06T14:49:39;1.23;;;1.10;;
2564;SDS011;1292;48.020;7.822;2023-08-06T14:52:06;1.90;;;0.90;;
2564;SDS011;1292;48.020;7.822;2023-08-06T14:54:33;4.47;;;0.87;;
2564;SDS011;1292;48.020;7.822;2023-08-06T14:57:00;0.83;;;0.83;;
2564;SDS011;1292;48.020;7.822;2023-08-06T14:59:27;1.20;;;0.80;;
2564;SDS011;1292;48.020;7.822;2023-08-06T15:01:54;0.60;;;0.60;;
2564;SDS011;1292;48.020;7.822;2023-08-06T15:04:21;0.83;;;0.77;;
2564;SDS011;1292;48.020;7.822;2023-08-06T15:06:50;0.70;;;0.70;;
2564;SDS011;1292;48.020;7.822;2023-08-06T15:09:17;1.80;;;0.97;;
2564;SDS011;1292;48.020;7.822;2023-08-06T15:11:45;0.80;;;0.80;;
2564;SDS011;1292;48.020;7.822;2023-08-06T15:14:12;1.57;;;0.87;;
2564;SDS011;1292;48.020;7.822;2023-08-06T15:16:39;0.73;;;0.70;;
2564;SDS011;1292;48.020;7.822;2023-08-06T15:19:06;1.47;;;1.37;;
2564;SDS011;1292;48.020;7.822;2023-08-06T15:21:33;1.37;;;1.10;;
2564;SDS011;1292;48.020;7.822;2023-08-06T15:24:01;4.80;;;2.60;;
2564;SDS011;1292;48.020;7.822;2023-08-06T15:26:28;3.87;;;3.00;;
2564;SDS011;1292;48.020;7.822;2023-08-06T15:28:55;3.23;;;2.43;;
2564;SDS011;1292;48.020;7.822;2023-08-06T15:31:22;2.10;;;1.80;;
2564;SDS011;1292;48.020;7.822;2023-08-06T15:33:49;1.43;;;1.33;;
2564;SDS011;1292;48.020;7.822;2023-08-06T15:36:16;2.87;;;2.10;;
2564;SDS011;1292;48.020;7.822;2023-08-06T15:38:42;2.50;;;1.87;;
2564;SDS011;1292;48.020;7.822;2023-08-06T15:41:10;2.60;;;1.60;;
2564;SDS011;1292;48.020;7.822;2023-08-06T15:43:37;2.30;;;2.10;;
2564;SDS011;1292;48.020;7.822;2023-08-06T15:46:06;3.87;;;2.73;;
2564;SDS011;1292;48.020;7.822;2023-08-06T15:48:33;2.73;;;2.50;;
2564;SDS011;1292;48.020;7.822;2023-08-06T15:51:00;1.90;;;1.80;;
2564;SDS011;1292;48.020;7.822;2023-08-06T15:53:28;2.23;;;1.67;;
2564;SDS011;1292;48.020;7.822;2023-08-06T15:55:56;1.43;;;1.33;;
2564;SDS011;1292;48.020;7.822;2023-08-06T15:58:24;6.50;;;4.87;;
2564;SDS011;1292;48.020;7.822;2023-08-06T16:00:51;4.53;;;3.30;;
2564;SDS011;1292;48.020;7.822;2023-08-06T16:03:18;2.63;;;2.27;;
2564;SDS011;1292;48.020;7.822;2023-08-06T16:05:45;12.60;;;8.37;;
2564;SDS011;1292;48.020;7.822;2023-08-06T16:08:12;7.83;;;5.43;;
2564;SDS011;1292;48.020;7.822;2023-08-06T16:10:39;8.27;;;4.63;;
2564;SDS011;1292;48.020;7.822;2023-08-06T16:13:09;6.53;;;3.73;;
2564;SDS011;1292;48.020;7.822;2023-08-06T16:15:37;5.90;;;3.70;;
2564;SDS011;1292;48.020;7.822;2023-08-06T16:18:04;4.10;;;3.30;;
2564;SDS011;1292;48.020;7.822;2023-08-06T16:20:31;2.20;;;1.90;;
2564;SDS011;1292;48.020;7.822;2023-08-06T16:22:57;6.17;;;4.40;;
2564;SDS011;1292;48.020;7.822;2023-08-06T16:25:24;3.80;;;2.53;;
2564;SDS011;1292;48.020;7.822;2023-08-06T16:27:51;2.40;;;2.20;;
2564;SDS011;1292;48.020;7.822;2023-08-06T16:30:18;5.33;;;2.70;;
2564;SDS011;1292;48.020;7.822;2023-08-06T16:32:46;3.20;;;2.03;;
2564;SDS011;1292;48.020;7.822;2023-08-06T16:35:13;2.13;;;1.97;;
2564;SDS011;1292;48.020;7.822;2023-08-06T16:37:40;2.90;;;2.60;;
2564;SDS011;1292;48.020;7.822;2023-08-06T16:40:13;8.53;;;6.67;;
2564;SDS011;1292;48.020;7.822;2023-08-06T16:42:42;2.50;;;1.60;;
2564;SDS011;1292;48.020;7.822;2023-08-06T16:45:09;1.70;;;1.53;;
2564;SDS011;1292;48.020;7.822;2023-08-06T16:47:36;1.60;;;1.10;;
2564;SDS011;1292;48.020;7.822;2023-08-06T16:50:05;1.30;;;1.20;;
2564;SDS011;1292;48.020;7.822;2023-08-06T16:52:32;3.07;;;1.33;;
2564;SDS011;1292;48.020;7.822;2023-08-06T16:54:59;1.50;;;1.20;;
2564;SDS011;1292;48.020;7.822;2023-08-06T16:57:26;2.63;;;1.10;;
2564;SDS011;1292;48.020;7.822;2023-08-06T16:59:53;1.40;;;1.13;;
2564;SDS011;1292;48.020;7.822;2023-08-06T17:02:19;1.90;;;1.57;;
2564;SDS011;1292;48.020;7.822;2023-08-06T17:04:46;2.07;;;1.73;;
2564;SDS011;1292;48.020;7.822;2023-08-06T17:07:14;10.43;;;4.70;;
2564;SDS011;1292;48.020;7.822;2023-08-06T17:09:41;11.60;;;6.40;;
2564;SDS011;1292;48.020;7.822;2023-08-06T17:12:08;9.70;;;6.20;;
2564;SDS011;1292;48.020;7.822;2023-08-06T17:14:35;6.30;;;5.13;;
2564;SDS011;1292;48.020;7.822;2023-08-06T17:17:02;4.93;;;3.93;;
2564;SDS011;1292;48.020;7.822;2023-08-06T17:19:28;4.90;;;3.37;;
2564;SDS011;1292;48.020;7.822;2023-08-06T17:21:55;7.00;;;2.37;;
2564;SDS011;1292;48.020;7.822;2023-08-06T17:24:24;3.13;;;2.17;;
2564;SDS011;1292;48.020;7.822;2023-08-06T17:26:51;2.80;;;2.10;;
2564;SDS011;1292;48.020;7.822;2023-08-06T17:29:23;1.97;;;1.73;;
2564;SDS011;1292;48.020;7.822;2023-08-06T17:31:50;1.63;;;1.53;;
2564;SDS011;1292;48.020;7.822;2023-08-06T17:34:18;6.43;;;1.93;;
2564;SDS011;1292;48.020;7.822;2023-08-06T17:36:45;2.70;;;2.50;;
2564;SDS011;1292;48.020;7.822;2023-08-06T17:39:12;4.57;;;2.20;;
2564;SDS011;1292;48.020;7.822;2023-08-06T17:41:40;5.23;;;4.03;;
2564;SDS011;1292;48.020;7.822;2023-08-06T17:44:07;9.23;;;4.23;;
2564;SDS011;1292;48.020;7.822;2023-08-06T17:46:33;4.20;;;3.10;;
2564;SDS011;1292;48.020;7.822;2023-08-06T17:49:00;3.13;;;1.80;;
2564;SDS011;1292;48.020;7.822;2023-08-06T17:51:27;4.80;;;2.73;;
2564;SDS011;1292;48.020;7.822;2023-08-06T17:53:54;5.10;;;4.27;;
2564;SDS011;1292;48.020;7.822;2023-08-06T17:56:21;5.33;;;4.47;;
2564;SDS011;1292;48.020;7.822;2023-08-06T17:58:49;5.87;;;4.50;;
2564;SDS011;1292;48.020;7.822;2023-08-06T18:01:16;3.67;;;2.03;;
2564;SDS011;1292;48.020;7.822;2023-08-06T18:03:43;2.30;;;2.10;;
2564;SDS011;1292;48.020;7.822;2023-08-06T18:06:12;2.07;;;1.87;;
2564;SDS011;1292;48.020;7.822;2023-08-06T18:08:39;1.87;;;1.40;;
2564;SDS011;1292;48.020;7.822;2023-08-06T18:11:06;4.20;;;2.53;;
2564;SDS011;1292;48.020;7.822;2023-08-06T18:13:32;2.17;;;1.97;;
2564;SDS011;1292;48.020;7.822;2023-08-06T18:16:01;1.70;;;1.43;;
2564;SDS011;1292;48.020;7.822;2023-08-06T18:18:28;5.23;;;1.73;;
2564;SDS011;1292;48.020;7.822;2023-08-06T18:20:55;1.93;;;1.17;;
2564;SDS011;1292;48.020;7.822;2023-08-06T18:23:23;2.70;;;1.97;;
2564;SDS011;1292;48.020;7.822;2023-08-06T18:25:49;2.10;;;1.67;;
2564;SDS011;1292;48.020;7.822;2023-08-06T18:28:20;2.20;;;1.50;;
2564;SDS011;1292;48.020;7.822;2023-08-06T18:30:48;1.90;;;1.70;;
2564;SDS011;1292;48.020;7.822;2023-08-06T18:33:16;3.10;;;2.10;;
2564;SDS011;1292;48.020;7.822;2023-08-06T18:35:43;1.93;;;1.70;;
2564;SDS011;1292;48.020;7.822;2023-08-06T18:38:10;3.00;;;1.83;;
2564;SDS011;1292;48.020;7.822;2023-08-06T18:40:37;2.00;;;1.60;;
2564;SDS011;1292;48.020;7.822;2023-08-06T18:43:04;2.00;;;1.70;;
2564;SDS011;1292;48.020;7.822;2023-08-06T18:45:33;2.67;;;1.90;;
2564;SDS011;1292;48.020;7.822;2023-08-06T18:48:04;2.37;;;1.63;;
2564;SDS011;1292;48.020;7.822;2023-08-06T18:50:32;1.30;;;1.20;;
2564;SDS011;1292;48.020;7.822;2023-08-06T18:53:02;3.27;;;1.47;;
2564;SDS011;1292;48.020;7.822;2023-08-06T18:55:29;2.00;;;1.77;;
2564;SDS011;1292;48.020;7.822;2023-08-06T18:57:56;3.40;;;2.33;;
2564;SDS011;1292;48.020;7.822;2023-08-06T19:00:25;2.60;;;1.93;;
2564;SDS011;1292;48.020;7.822;2023-08-06T19:02:51;1.63;;;1.50;;
2564;SDS011;1292;48.020;7.822;2023-08-06T19:05:18;1.90;;;1.80;;
2564;SDS011;1292;48.020;7.822;2023-08-06T19:07:48;3.10;;;1.47;;
2564;SDS011;1292;48.020;7.822;2023-08-06T19:10:15;1.97;;;1.70;;
2564;SDS011;1292;48.020;7.822;2023-08-06T19:12:42;2.30;;;1.93;;
2564;SDS011;1292;48.020;7.822;2023-08-06T19:15:09;1.63;;;1.53;;
2564;SDS011;1292;48.020;7.822;2023-08-06T19:17:36;1.70;;;1.50;;
2564;SDS011;1292;48.020;7.822;2023-08-06T19:20:03;3.80;;;1.77;;
2564;SDS011;1292;48.020;7.822;2023-08-06T19:22:31;1.67;;;1.57;;
2564;SDS011;1292;48.020;7.822;2023-08-06T19:24:59;2.70;;;1.97;;
2564;SDS011;1292;48.020;7.822;2023-08-06T19:27:26;2.30;;;1.77;;
2564;SDS011;1292;48.020;7.822;2023-08-06T19:29:53;3.07;;;1.33;;
2564;SDS011;1292;48.020;7.822;2023-08-06T19:32:20;2.37;;;2.10;;
2564;SDS011;1292;48.020;7.822;2023-08-06T19:34:47;3.60;;;1.90;;
2564;SDS011;1292;48.020;7.822;2023-08-06T19:37:14;3.37;;;1.53;;
2564;SDS011;1292;48.020;7.822;2023-08-06T19:39:41;2.30;;;1.40;;
2564;SDS011;1292;48.020;7.822;2023-08-06T19:42:09;1.60;;;1.50;;
2564;SDS011;1292;48.020;7.822;2023-08-06T19:44:36;2.20;;;2.00;;
2564;SDS011;1292;48.020;7.822;2023-08-06T19:47:03;3.37;;;2.13;;
2564;SDS011;1292;48.020;7.822;2023-08-06T19:49:31;4.67;;;1.60;;
2564;SDS011;1292;48.020;7.822;2023-08-06T19:51:58;5.43;;;1.67;;
2564;SDS011;1292;48.020;7.822;2023-08-06T19:54:26;3.00;;;1.70;;
2564;SDS011;1292;48.020;7.822;2023-08-06T19:56:55;1.93;;;1.73;;
2564;SDS011;1292;48.020;7.822;2023-08-06T19:59:24;1.97;;;1.57;;
2564;SDS011;1292;48.020;7.822;2023-08-06T20:01:50;4.90;;;2.13;;
2564;SDS011;1292;48.020;7.822;2023-08-06T20:04:17;3.30;;;3.00;;
2564;SDS011;1292;48.020;7.822;2023-08-06T20:06:45;5.20;;;3.00;;
2564;SDS011;1292;48.020;7.822;2023-08-06T20:09:12;2.20;;;2.00;;
2564;SDS011;1292;48.020;7.822;2023-08-06T20:11:39;1.83;;;1.73;;
2564;SDS011;1292;48.020;7.822;2023-08-06T20:14:06;2.10;;;1.90;;
2564;SDS011;1292;48.020;7.822;2023-08-06T20:16:35;3.60;;;1.90;;
2564;SDS011;1292;48.020;7.822;2023-08-06T20:19:01;1.80;;;1.70;;
2564;SDS011;1292;48.020;7.822;2023-08-06T20:21:28;5.47;;;2.00;;
2564;SDS011;1292;48.020;7.822;2023-08-06T20:23:55;2.50;;;1.80;;
2564;SDS011;1292;48.020;7.822;2023-08-06T20:26:22;2.60;;;1.87;;
2564;SDS011;1292;48.020;7.822;2023-08-06T20:28:49;2.00;;;1.57;;
2564;SDS011;1292;48.020;7.822;2023-08-06T20:31:16;3.37;;;1.97;;
2564;SDS011;1292;48.020;7.822;2023-08-06T20:33:44;2.83;;;1.87;;
2564;SDS011;1292;48.020;7.822;2023-08-06T20:36:11;1.53;;;1.43;;
2564;SDS011;1292;48.020;7.822;2023-08-06T20:38:38;2.00;;;1.67;;
2564;SDS011;1292;48.020;7.822;2023-08-06T20:41:04;4.80;;;1.87;;
2564;SDS011;1292;48.020;7.822;2023-08-06T20:43:31;2.53;;;1.97;;
2564;SDS011;1292;48.020;7.822;2023-08-06T20:45:58;1.80;;;1.50;;
2564;SDS011;1292;48.020;7.822;2023-08-06T20:48:29;2.00;;;1.80;;
2564;SDS011;1292;48.020;7.822;2023-08-06T20:50:57;1.77;;;1.40;;
2564;SDS011;1292;48.020;7.822;2023-08-06T20:53:24;3.50;;;2.00;;
2564;SDS011;1292;48.020;7.822;2023-08-06T20:56:00;2.80;;;1.47;;
2564;SDS011;1292;48.020;7.822;2023-08-06T20:58:28;2.17;;;1.97;;
2564;SDS011;1292;48.020;7.822;2023-08-06T21:00:56;2.50;;;2.10;;
2564;SDS011;1292;48.020;7.822;2023-08-06T21:03:23;1.83;;;1.70;;
2564;SDS011;1292;48.020;7.822;2023-08-06T21:06:02;2.20;;;1.70;;
2564;SDS011;1292;48.020;7.822;2023-08-06T21:08:30;2.30;;;1.83;;
2564;SDS011;1292;48.020;7.822;2023-08-06T21:10:57;1.60;;;1.50;;